Time,TemperatureF,DewpointF,PressureIn,WindDirection,WindDirectionDegrees,WindSpeedMPH,WindSpeedGustMPH,Humidity,HourlyPrecipIn,Conditions,Clouds,dailyrainin,SolarRadiationWatts/m^2,SoftwareType,DateUTC
2013-01-03 00:03:00,-2.0,-11.0,-100.00,NNW,347,4.0,5.0,63,0.00,,,0.00,0.000000,,2013-01-03 05:03:00,
2013-01-03 00:12:00,-2.0,-11.0,-100.00,NNW,347,4.0,5.0,63,0.00,,,0.00,0.000000,,2013-01-03 05:12:00,
2013-01-03 00:33:00,-5.0,-11.0,-100.00,North,9,1.0,5.0,73,0.00,,,0.00,0.000000,,2013-01-03 05:33:00,
2013-01-03 00:42:00,-5.0,-11.0,-100.00,North,9,1.0,5.0,73,0.00,,,0.00,0.000000,,2013-01-03 05:42:00,
2013-01-03 00:53:00,-5.0,-11.0,-100.00,North,9,1.0,5.0,73,0.00,,,0.00,0.000000,,2013-01-03 05:53:00,
2013-01-03 01:03:00,-5.0,-11.0,-100.00,North,9,1.0,5.0,73,0.00,,,0.00,0.000000,,2013-01-03 06:03:00,
2013-01-03 01:12:00,-5.0,-11.0,-100.00,North,9,1.0,5.0,73,0.00,,,0.00,0.000000,,2013-01-03 06:12:00,
2013-01-03 01:33:00,-7.0,-12.0,-100.00,SW,231,0.0,3.0,77,0.00,,,0.00,0.000000,,2013-01-03 06:33:00,
2013-01-03 01:43:00,-7.0,-12.0,-100.00,SW,231,0.0,3.0,77,0.00,,,0.00,0.000000,,2013-01-03 06:43:00,
2013-01-03 01:53:00,-7.0,-12.0,-100.00,SW,231,0.0,3.0,77,0.00,,,0.00,0.000000,,2013-01-03 06:53:00,
2013-01-03 02:02:00,-7.0,-12.0,-100.00,SW,231,0.0,3.0,77,0.00,,,0.00,0.000000,,2013-01-03 07:02:00,
2013-01-03 02:12:00,-7.0,-12.0,-100.00,SW,231,0.0,3.0,77,0.00,,,0.00,0.000000,,2013-01-03 07:12:00,
2013-01-03 02:33:00,-9.0,-15.0,-100.00,NE,41,2.0,4.0,75,0.00,,,0.00,0.000000,,2013-01-03 07:33:00,
2013-01-03 02:43:00,-9.0,-15.0,-100.00,NE,41,2.0,4.0,75,0.00,,,0.00,0.000000,,2013-01-03 07:43:00,
2013-01-03 02:53:00,-9.0,-15.0,-100.00,NE,41,2.0,4.0,75,0.00,,,0.00,0.000000,,2013-01-03 07:53:00,
2013-01-03 03:02:00,-9.0,-15.0,-100.00,NE,41,2.0,4.0,75,0.00,,,0.00,0.000000,,2013-01-03 08:02:00,
2013-01-03 03:12:00,-9.0,-15.0,-100.00,NE,41,2.0,4.0,75,0.00,,,0.00,0.000000,,2013-01-03 08:12:00,
2013-01-03 03:43:00,-10.0,-16.0,-100.00,NE,39,2.0,3.0,74,0.00,,,0.00,0.000000,,2013-01-03 08:43:00,
2013-01-03 03:53:00,-10.0,-16.0,-100.00,NE,39,2.0,3.0,74,0.00,,,0.00,0.000000,,2013-01-03 08:53:00,
2013-01-03 04:03:00,-10.0,-16.0,-100.00,NE,39,2.0,3.0,74,0.00,,,0.00,0.000000,,2013-01-03 09:03:00,
2013-01-03 04:12:00,-10.0,-16.0,-100.00,NE,39,2.0,3.0,74,0.00,,,0.00,0.000000,,2013-01-03 09:12:00,
2013-01-03 04:34:00,-12.0,-18.0,-100.00,ENE,71,1.0,3.0,73,0.00,,,0.00,0.000000,,2013-01-03 09:34:00,
2013-01-03 04:43:00,-12.0,-18.0,-100.00,ENE,71,1.0,3.0,73,0.00,,,0.00,0.000000,,2013-01-03 09:43:00,
2013-01-03 04:53:00,-12.0,-18.0,-100.00,ENE,71,1.0,3.0,73,0.00,,,0.00,0.000000,,2013-01-03 09:53:00,
2013-01-03 05:02:00,-12.0,-18.0,-100.00,ENE,71,1.0,3.0,73,0.00,,,0.00,0.000000,,2013-01-03 10:02:00,
2013-01-03 05:12:00,-12.0,-18.0,-100.00,ENE,71,1.0,3.0,73,0.00,,,0.00,0.000000,,2013-01-03 10:12:00,
2013-01-03 05:33:00,-13.0,-19.0,-100.00,NE,44,0.0,3.0,72,0.00,,,0.00,0.000000,,2013-01-03 10:33:00,
2013-01-03 05:43:00,-13.0,-19.0,-100.00,NE,44,0.0,3.0,72,0.00,,,0.00,0.000000,,2013-01-03 10:43:00,
2013-01-03 05:53:00,-13.0,-19.0,-100.00,NE,44,0.0,3.0,72,0.00,,,0.00,0.000000,,2013-01-03 10:53:00,
2013-01-03 06:03:00,-13.0,-19.0,-100.00,NE,44,0.0,3.0,72,0.00,,,0.00,0.000000,,2013-01-03 11:03:00,
2013-01-03 06:12:00,-13.0,-19.0,-100.00,NE,44,0.0,3.0,72,0.00,,,0.00,0.000000,,2013-01-03 11:12:00,
2013-01-03 06:33:00,-14.0,-20.0,-100.00,WSW,255,0.0,0.0,72,0.00,,,0.00,0.000000,,2013-01-03 11:33:00,
2013-01-03 06:43:00,-14.0,-20.0,-100.00,WSW,255,0.0,0.0,72,0.00,,,0.00,0.000000,,2013-01-03 11:43:00,
2013-01-03 06:53:00,-14.0,-20.0,-100.00,WSW,255,0.0,0.0,72,0.00,,,0.00,0.000000,,2013-01-03 11:53:00,
2013-01-03 07:03:00,-14.0,-20.0,-100.00,WSW,255,0.0,0.0,72,0.00,,,0.00,0.000000,,2013-01-03 12:03:00,
2013-01-03 07:12:00,-14.0,-20.0,-100.00,WSW,255,0.0,0.0,72,0.00,,,0.00,0.000000,,2013-01-03 12:12:00,
2013-01-03 07:43:00,-15.0,-22.0,-100.00,SE,127,0.0,3.0,70,0.00,,,0.00,1.000000,,2013-01-03 12:43:00,
2013-01-03 07:53:00,-15.0,-22.0,-100.00,SE,127,0.0,3.0,70,0.00,,,0.00,1.000000,,2013-01-03 12:53:00,
2013-01-03 08:03:00,-15.0,-22.0,-100.00,SE,127,0.0,3.0,70,0.00,,,0.00,1.000000,,2013-01-03 13:03:00,
2013-01-03 08:13:00,-15.0,-22.0,-100.00,SE,127,0.0,3.0,70,0.00,,,0.00,1.000000,,2013-01-03 13:13:00,
2013-01-03 10:43:00,6.0,-3.0,-100.00,WSW,258,1.0,3.0,65,-99.99,,,0.00,218.000000,,2013-01-03 15:43:00,
2013-01-03 10:53:00,6.0,-3.0,-100.00,WSW,258,1.0,3.0,65,-99.99,,,0.00,218.000000,,2013-01-03 15:53:00,
2013-01-03 11:03:00,6.0,-3.0,-100.00,WSW,258,1.0,3.0,65,-99.99,,,0.00,218.000000,,2013-01-03 16:03:00,
2013-01-03 11:12:00,6.0,-3.0,-100.00,WSW,258,1.0,3.0,65,-99.99,,,0.00,218.000000,,2013-01-03 16:12:00,
2013-01-03 11:43:00,8.0,-5.0,-100.00,WNW,295,2.0,4.0,54,0.00,,,0.00,206.000000,,2013-01-03 16:43:00,
2013-01-03 11:53:00,8.0,-5.0,-100.00,WNW,295,2.0,4.0,54,0.00,,,0.00,206.000000,,2013-01-03 16:53:00,
2013-01-03 12:03:00,8.0,-5.0,-100.00,WNW,295,2.0,4.0,54,0.00,,,0.00,206.000000,,2013-01-03 17:03:00,
2013-01-03 12:13:00,8.0,-5.0,-100.00,WNW,295,2.0,4.0,54,0.00,,,0.00,206.000000,,2013-01-03 17:13:00,
2013-01-03 12:43:00,15.0,-7.0,-100.00,WNW,299,2.0,4.0,37,0.00,,,0.00,259.000000,,2013-01-03 17:43:00,
2013-01-03 12:53:00,15.0,-7.0,-100.00,WNW,299,2.0,4.0,37,0.00,,,0.00,259.000000,,2013-01-03 17:53:00,
2013-01-03 13:03:00,15.0,-7.0,-100.00,WNW,299,2.0,4.0,37,0.00,,,0.00,259.000000,,2013-01-03 18:03:00,
2013-01-03 13:13:00,15.0,-7.0,-100.00,WNW,299,2.0,4.0,37,0.00,,,0.00,259.000000,,2013-01-03 18:13:00,
2013-01-03 13:33:00,18.0,-6.0,-100.00,WSW,239,3.0,6.0,33,0.00,,,0.00,297.000000,,2013-01-03 18:33:00,
2013-01-03 13:43:00,18.0,-6.0,-100.00,WSW,239,3.0,6.0,33,0.00,,,0.00,297.000000,,2013-01-03 18:43:00,
2013-01-03 13:53:00,18.0,-6.0,-100.00,WSW,239,3.0,6.0,33,0.00,,,0.00,297.000000,,2013-01-03 18:53:00,
2013-01-03 14:03:00,18.0,-6.0,-100.00,WSW,239,3.0,6.0,33,0.00,,,0.00,297.000000,,2013-01-03 19:03:00,
2013-01-03 14:12:00,18.0,-6.0,-100.00,WSW,239,3.0,6.0,33,0.00,,,0.00,297.000000,,2013-01-03 19:12:00,
2013-01-03 14:57:00,21.0,-6.0,-100.00,West,274,3.0,5.0,30,0.01,,,0.01,293.000000,,2013-01-03 19:57:00,
2013-01-03 15:03:00,21.0,-6.0,-100.00,West,274,3.0,5.0,30,0.01,,,0.01,293.000000,,2013-01-03 20:03:00,
2013-01-03 15:12:00,21.0,-6.0,-100.00,West,274,3.0,5.0,30,0.01,,,0.01,293.000000,,2013-01-03 20:12:00,
2013-01-03 15:33:00,20.0,-4.0,-100.00,West,260,4.0,6.0,34,0.01,,,0.02,220.000000,,2013-01-03 20:33:00,
2013-01-03 15:43:00,20.0,-4.0,-100.00,West,260,4.0,6.0,34,0.01,,,0.02,220.000000,,2013-01-03 20:43:00,
2013-01-03 15:53:00,20.0,-4.0,-100.00,West,260,4.0,6.0,34,0.01,,,0.02,220.000000,,2013-01-03 20:53:00,
2013-01-03 16:03:00,20.0,-4.0,-100.00,West,260,4.0,6.0,34,0.01,,,0.02,220.000000,,2013-01-03 21:03:00,
2013-01-03 16:13:00,20.0,-4.0,-100.00,West,260,4.0,6.0,34,0.01,,,0.02,220.000000,,2013-01-03 21:13:00,
2013-01-03 16:51:00,13.0,-5.0,-100.00,NNE,31,2.0,7.0,44,0.00,,,0.02,53.000000,,2013-01-03 21:51:00,
2013-01-03 17:03:00,13.0,-5.0,-100.00,NNE,31,2.0,7.0,44,0.00,,,0.02,53.000000,,2013-01-03 22:03:00,
2013-01-03 17:12:00,13.0,-5.0,-100.00,NNE,31,2.0,7.0,44,0.00,,,0.02,53.000000,,2013-01-03 22:12:00,
2013-01-03 17:43:00,10.0,-4.0,-100.00,NNE,14,2.0,6.0,51,0.01,,,0.03,3.000000,,2013-01-03 22:43:00,
2013-01-03 17:53:00,10.0,-4.0,-100.00,NNE,14,2.0,6.0,51,0.01,,,0.03,3.000000,,2013-01-03 22:53:00,
2013-01-03 18:03:00,10.0,-4.0,-100.00,NNE,14,2.0,6.0,51,0.01,,,0.03,3.000000,,2013-01-03 23:03:00,
2013-01-03 18:12:00,10.0,-4.0,-100.00,NNE,14,2.0,6.0,51,0.01,,,0.03,3.000000,,2013-01-03 23:12:00,
2013-01-03 18:43:00,10.0,-4.0,-100.00,WSW,251,0.0,4.0,53,0.00,,,0.03,0.000000,,2013-01-03 23:43:00,
2013-01-03 18:53:00,10.0,-4.0,-100.00,WSW,251,0.0,4.0,53,0.00,,,0.03,0.000000,,2013-01-03 23:53:00,
2013-01-03 19:03:00,10.0,-4.0,-100.00,WSW,251,0.0,4.0,53,0.00,,,0.03,0.000000,,2013-01-04 00:03:00,
2013-01-03 19:13:00,10.0,-4.0,-100.00,WSW,251,0.0,4.0,53,0.00,,,0.03,0.000000,,2013-01-04 00:13:00,
2013-01-03 19:33:00,10.0,0.0,-100.00,NNE,31,2.0,4.0,62,0.00,,,0.03,0.000000,,2013-01-04 00:33:00,
2013-01-03 19:42:00,10.0,0.0,-100.00,NNE,31,2.0,4.0,62,0.00,,,0.03,0.000000,,2013-01-04 00:42:00,
2013-01-03 19:53:00,10.0,0.0,-100.00,NNE,31,2.0,4.0,62,0.00,,,0.03,0.000000,,2013-01-04 00:53:00,
2013-01-03 20:02:00,10.0,0.0,-100.00,NNE,31,2.0,4.0,62,0.00,,,0.03,0.000000,,2013-01-04 01:02:00,
2013-01-03 20:13:00,10.0,0.0,-100.00,NNE,31,2.0,4.0,62,0.00,,,0.03,0.000000,,2013-01-04 01:13:00,
2013-01-03 20:42:00,10.0,1.0,-100.00,North,357,2.0,5.0,67,0.00,,,0.03,0.000000,,2013-01-04 01:42:00,
2013-01-03 20:53:00,10.0,1.0,-100.00,North,357,2.0,5.0,67,0.00,,,0.03,0.000000,,2013-01-04 01:53:00,
2013-01-03 21:02:00,10.0,1.0,-100.00,North,357,2.0,5.0,67,0.00,,,0.03,0.000000,,2013-01-04 02:02:00,
2013-01-03 21:12:00,10.0,1.0,-100.00,North,357,2.0,5.0,67,0.00,,,0.03,0.000000,,2013-01-04 02:12:00,
2013-01-03 21:33:00,10.0,3.0,-100.00,North,1,3.0,5.0,71,0.00,,,0.03,0.000000,,2013-01-04 02:33:00,
2013-01-03 21:42:00,10.0,3.0,-100.00,North,1,3.0,5.0,71,0.00,,,0.03,0.000000,,2013-01-04 02:42:00,
2013-01-03 21:53:00,10.0,3.0,-100.00,North,1,3.0,5.0,71,0.00,,,0.03,0.000000,,2013-01-04 02:53:00,
2013-01-03 22:03:00,10.0,3.0,-100.00,North,1,3.0,5.0,71,0.00,,,0.03,0.000000,,2013-01-04 03:03:00,
2013-01-03 22:12:00,10.0,3.0,-100.00,North,1,3.0,5.0,71,0.00,,,0.03,0.000000,,2013-01-04 03:12:00,
2013-01-03 22:43:00,10.0,4.0,-100.00,SW,232,2.0,6.0,75,0.00,,,0.03,0.000000,,2013-01-04 03:43:00,
2013-01-03 22:53:00,10.0,4.0,-100.00,SW,232,2.0,6.0,75,0.00,,,0.03,0.000000,,2013-01-04 03:53:00,
2013-01-03 23:02:00,10.0,4.0,-100.00,SW,232,2.0,6.0,75,0.00,,,0.03,0.000000,,2013-01-04 04:02:00,
2013-01-03 23:12:00,10.0,4.0,-100.00,SW,232,2.0,6.0,75,0.00,,,0.03,0.000000,,2013-01-04 04:12:00,
2013-01-03 23:32:00,11.0,5.0,-100.00,ESE,111,2.0,6.0,76,0.00,,,0.03,0.000000,,2013-01-04 04:32:00,
2013-01-03 23:42:00,11.0,5.0,-100.00,ESE,111,2.0,6.0,76,0.00,,,0.03,0.000000,,2013-01-04 04:42:00,
2013-01-03 23:53:00,11.0,5.0,-100.00,ESE,111,2.0,6.0,76,0.00,,,0.03,0.000000,,2013-01-04 04:53:00,